Time;durP1;ratioP1;P1;durP2;ratioP2;P2;SDS_P1;SDS_P2;PMS_P1;PMS_P2;Temp;Humidity;BMP_temperature;BMP_pressure;BME280_temperature;BME280_humidity;BME280_pressure;Samples;Min_cycle;Max_cycle;Signal;HPM_P1;HPM_P2
2024/01/17 00:01:27;;;;;;;;;;;;;;;;;;5024316;28;20558;-67
2024/01/17 00:03:55;;;;;;;;;;;;;;;;;;5021288;28;19917;-69
2024/01/17 00:06:22;;;;;;;;;;;;;;;;;;5026159;28;19952;-68
2024/01/17 00:08:47;;;;;;;;;;;;;;;;;;5005173;28;19917;-66
2024/01/17 00:11:13;;;;;;;;;;;;;;;;;;5052845;28;20183;-67
2024/01/17 00:13:38;;;;;;;;;;;;;;;;;;5005075;28;20426;-68
2024/01/17 00:16:06;;;;;;;;;;;;;;;;;;5021341;28;19999;-67
2024/01/17 00:18:31;;;;;;;;;;;;;;;;;;5022770;28;19963;-68
2024/01/17 00:20:56;;;;;;;;;;;;;;;;;;5021754;28;20031;-68
2024/01/17 00:23:22;;;;;;;;;;;;;;;;;;5022746;28;19916;-68
2024/01/17 00:25:47;;;;;;;;;;;;;;;;;;5025518;28;20132;-67
2024/01/17 00:28:14;;;;;;;;;;;;;;;;;;5018368;28;20004;-66
2024/01/17 00:30:40;;;;;;;;;;;;;;;;;;5023814;28;19986;-68
2024/01/17 00:33:05;;;;;;;;;;;;;;;;;;5020787;28;20006;-67
2024/01/17 00:35:30;;;;;;;;;;;;;;;;;;5022477;28;19925;-67
2024/01/17 00:37:55;;;;;;;;;;;;;;;;;;5003393;28;19921;-66
2024/01/17 00:40:21;;;;;;;;;;;;;;;;;;5020649;28;19928;-68
2024/01/17 00:42:46;;;;;;;;;;;;;;;;;;5036617;28;20206;-66
2024/01/17 00:45:13;;;;;;;;;;;;;;;;;;5019194;28;20642;-67
2024/01/17 00:47:38;;;;;;;;;;;;;;;;;;5020984;28;20122;-67
2024/01/17 00:50:06;;;;;;;;;;;;;;;;;;5018987;28;19986;-67
2024/01/17 00:52:37;;;;;;;;;;;;;;;;;;5021837;28;20548;-67
2024/01/17 00:55:02;;;;;;;;;;;;;;;;;;5019491;28;19980;-66
2024/01/17 00:57:27;;;;;;;;;;;;;;;;;;5001706;28;19929;-68
2024/01/17 00:59:53;;;;;;;;;;;;;;;;;;5019750;28;19913;-66
2024/01/17 01:02:18;;;;;;;;;;;;;;;;;;5005816;28;19928;-67
2024/01/17 01:04:43;;;;;;;;;;;;;;;;;;5002894;28;19921;-67
2024/01/17 01:07:16;;;;;;;;;;;;;;;;;;5023240;28;20320;-66
2024/01/17 01:09:41;;;;;;;;;;;;;;;;;;5001684;28;19971;-68
2024/01/17 01:12:07;;;;;;;;;;;;;;;;;;5016826;28;20075;-68
2024/01/17 01:14:32;;;;;;;;;;;;;;;;;;5017579;28;19975;-68
2024/01/17 01:16:57;;;;;;;;;;;;;;;;;;5019621;28;20123;-69
2024/01/17 01:19:25;;;;;;;;;;;;;;;;;;5004102;28;19917;-68
2024/01/17 01:21:53;;;;;;;;;;;;;;;;;;5018364;28;19929;-68
2024/01/17 01:24:22;;;;;;;;;;;;;;;;;;5020278;28;19921;-66
2024/01/17 01:26:47;;;;;;;;;;;;;;;;;;5017297;28;20280;-67
2024/01/17 01:29:15;;;;;;;;;;;;;;;;;;5018177;28;20139;-68
2024/01/17 01:31:42;;;;;;;;;;;;;;;;;;5020868;28;19975;-68
2024/01/17 01:34:10;;;;;;;;;;;;;;;;;;5054611;28;19921;-68
2024/01/17 01:36:35;;;;;;;;;;;;;;;;;;5019707;28;19936;-68
2024/01/17 01:39:03;;;;;;;;;;;;;;;;;;5003358;28;20575;-68
2024/01/17 01:41:28;;;;;;;;;;;;;;;;;;5018855;28;19924;-68
2024/01/17 01:43:54;;;;;;;;;;;;;;;;;;5022032;28;20351;-68
2024/01/17 01:46:20;;;;;;;;;;;;;;;;;;5018586;28;20043;-67
2024/01/17 01:48:48;;;;;;;;;;;;;;;;;;5017491;28;19921;-66
2024/01/17 01:51:14;;;;;;;;;;;;;;;;;;5019449;28;21421;-65
2024/01/17 01:53:39;;;;;;;;;;;;;;;;;;5015453;28;19994;-70
2024/01/17 01:56:04;;;;;;;;;;;;;;;;;;5022069;28;20932;-67
2024/01/17 01:58:31;;;;;;;;;;;;;;;;;;5020322;28;20261;-67
2024/01/17 02:00:56;;;;;;;;;;;;;;;;;;5016300;28;20385;-67
2024/01/17 02:03:24;;;;;;;;;;;;;;;;;;5019389;28;20455;-67
2024/01/17 02:05:49;;;;;;;;;;;;;;;;;;5019999;28;19996;-68
2024/01/17 02:11:31;;;;;;;;;;;;;;;;;;5019025;28;19921;-67
2024/01/17 02:13:56;;;;;;;;;;;;;;;;;;5021804;28;19917;-67
2024/01/17 02:16:24;;;;;;;;;;;;;;;;;;5018146;28;19921;-67
2024/01/17 02:18:52;;;;;;;;;;;;;;;;;;5022831;28;19921;-67
2024/01/17 02:21:17;;;;;;;;;;;;;;;;;;5001453;28;19921;-67
2024/01/17 02:23:43;;;;;;;;;;;;;;;;;;5020332;28;19917;-65
2024/01/17 02:26:08;;;;;;;;;;;;;;;;;;5020146;28;19956;-68
2024/01/17 02:28:33;;;;;;;;;;;;;;;;;;5019020;28;20106;-69
2024/01/17 02:30:59;;;;;;;;;;;;;;;;;;5022370;28;20281;-67
2024/01/17 02:33:24;;;;;;;;;;;;;;;;;;5020039;28;19951;-66
2024/01/17 02:35:49;;;;;;;;;;;;;;;;;;5035721;28;19954;-68
2024/01/17 02:41:04;;;;;;;;;;;;;;;;;;5016368;28;20434;-68
2024/01/17 02:43:33;;;;;;;;;;;;;;;;;;5052742;28;19982;-68
2024/01/17 02:45:58;;;;;;;;;;;;;;;;;;5011563;28;20364;-68
2024/01/17 02:48:26;;;;;;;;;;;;;;;;;;5019915;28;19917;-68
2024/01/17 02:50:51;;;;;;;;;;;;;;;;;;5019534;28;19921;-67
2024/01/17 02:53:19;;;;;;;;;;;;;;;;;;5019627;28;20012;-68
2024/01/17 02:55:44;;;;;;;;;;;;;;;;;;5035771;28;19917;-67
2024/01/17 02:58:10;;;;;;;;;;;;;;;;;;5021813;28;19916;-68
2024/01/17 03:00:42;;;;;;;;;;;;;;;;;;5039217;28;19932;-67
2024/01/17 03:03:07;;;;;;;;;;;;;;;;;;5039237;28;19921;-67
2024/01/17 03:05:37;;;;;;;;;;;;;;;;;;5022719;28;20556;-68
2024/01/17 03:08:02;;;;;;;;;;;;;;;;;;5036098;28;20374;-68
2024/01/17 03:10:27;;;;;;;;;;;;;;;;;;5024695;28;20570;-67
2024/01/17 03:12:52;;;;;;;;;;;;;;;;;;5022957;28;20027;-67
2024/01/17 03:15:18;;;;;;;;;;;;;;;;;;5020984;28;20399;-68
2024/01/17 03:17:43;;;;;;;;;;;;;;;;;;5041182;28;19912;-68
2024/01/17 03:20:10;;;;;;;;;;;;;;;;;;5023515;28;19920;-67
2024/01/17 03:22:36;;;;;;;;;;;;;;;;;;5023586;28;19921;-69
2024/01/17 03:25:01;;;;;;;;;;;;;;;;;;5002917;28;19917;-69
2024/01/17 03:27:31;;;;;;;;;;;;;;;;;;5002750;28;20368;-68
2024/01/17 03:29:56;;;;;;;;;;;;;;;;;;5022048;28;19929;-68
2024/01/17 03:35:16;;;;;;;;;;;;;;;;;;5019829;28;20039;-67
2024/01/17 03:37:44;;;;;;;;;;;;;;;;;;5025865;28;19925;-68
2024/01/17 03:40:09;;;;;;;;;;;;;;;;;;5021064;28;22054;-68
2024/01/17 03:42:35;;;;;;;;;;;;;;;;;;5020372;28;19932;-69
2024/01/17 03:45:03;;;;;;;;;;;;;;;;;;4999804;28;19920;-67
2024/01/17 03:47:31;;;;;;;;;;;;;;;;;;5021668;28;20758;-68
2024/01/17 03:49:56;;;;;;;;;;;;;;;;;;5019969;28;19947;-69
2024/01/17 03:52:22;;;;;;;;;;;;;;;;;;5053919;28;19924;-68
2024/01/17 03:54:52;;;;;;;;;;;;;;;;;;5002770;28;19975;-69
2024/01/17 03:57:20;;;;;;;;;;;;;;;;;;5022287;28;19921;-68
2024/01/17 03:59:45;;;;;;;;;;;;;;;;;;5017307;28;20012;-68
2024/01/17 04:02:11;;;;;;;;;;;;;;;;;;5036998;28;19943;-68
2024/01/17 04:04:39;;;;;;;;;;;;;;;;;;5024617;28;20513;-68
2024/01/17 04:07:07;;;;;;;;;;;;;;;;;;5020055;28;19931;-68
2024/01/17 04:09:33;;;;;;;;;;;;;;;;;;5003754;28;19932;-67
2024/01/17 04:12:02;;;;;;;;;;;;;;;;;;5004466;28;20064;-68
2024/01/17 04:14:48;;;;;;;;;;;;;;;;;;5022365;28;19917;-69
2024/01/17 04:17:13;;;;;;;;;;;;;;;;;;5023757;28;20380;-68
2024/01/17 04:19:39;;;;;;;;;;;;;;;;;;5021000;28;19943;-67
2024/01/17 04:22:07;;;;;;;;;;;;;;;;;;5003000;28;19952;-68
2024/01/17 04:24:32;;;;;;;;;;;;;;;;;;5023172;28;19916;-69
2024/01/17 04:26:57;;;;;;;;;;;;;;;;;;5048079;28;20187;-68
2024/01/17 04:29:23;;;;;;;;;;;;;;;;;;5003626;28;19921;-69
2024/01/17 04:31:48;;;;;;;;;;;;;;;;;;5036372;28;20732;-68
2024/01/17 04:34:18;;;;;;;;;;;;;;;;;;5022887;28;19977;-68
2024/01/17 04:36:44;;;;;;;;;;;;;;;;;;5016882;28;20485;-68
2024/01/17 04:39:10;;;;;;;;;;;;;;;;;;5033092;28;19921;-68
2024/01/17 04:41:48;;;;;;;;;;;;;;;;;;5015079;28;19920;-69
2024/01/17 04:44:14;;;;;;;;;;;;;;;;;;4999442;28;19917;-67
2024/01/17 04:46:51;;;;;;;;;;;;;;;;;;5022236;28;20355;-69
2024/01/17 04:49:16;;;;;;;;;;;;;;;;;;5012138;28;19921;-69
2024/01/17 04:51:46;;;;;;;;;;;;;;;;;;4999067;28;19916;-68
2024/01/17 04:54:11;;;;;;;;;;;;;;;;;;5020253;28;19921;-69
2024/01/17 04:56:37;;;;;;;;;;;;;;;;;;5019558;28;19928;-68
2024/01/17 04:59:02;;;;;;;;;;;;;;;;;;5022882;28;19916;-70
2024/01/17 05:01:27;;;;;;;;;;;;;;;;;;5020541;28;19945;-69
2024/01/17 05:03:53;;;;;;;;;;;;;;;;;;5020741;28;19921;-69
2024/01/17 05:06:18;;;;;;;;;;;;;;;;;;5003407;28;19916;-70
2024/01/17 05:08:46;;;;;;;;;;;;;;;;;;5001384;28;20070;-68
2024/01/17 05:11:13;;;;;;;;;;;;;;;;;;5020614;28;19944;-71
2024/01/17 05:13:41;;;;;;;;;;;;;;;;;;5011526;28;19924;-69
2024/01/17 05:16:06;;;;;;;;;;;;;;;;;;5017054;28;20037;-71
2024/01/17 05:18:34;;;;;;;;;;;;;;;;;;5004658;28;19921;-70
2024/01/17 05:21:02;;;;;;;;;;;;;;;;;;5014997;28;20021;-70
2024/01/17 05:23:31;;;;;;;;;;;;;;;;;;5019172;28;19923;-70
2024/01/17 05:25:56;;;;;;;;;;;;;;;;;;5019856;28;20028;-70
2024/01/17 05:28:21;;;;;;;;;;;;;;;;;;5019742;28;19913;-70
2024/01/17 05:30:47;;;;;;;;;;;;;;;;;;5017016;28;20285;-68
2024/01/17 05:33:23;;;;;;;;;;;;;;;;;;5052638;28;19924;-69
2024/01/17 05:35:48;;;;;;;;;;;;;;;;;;5021545;28;20451;-68
2024/01/17 05:38:14;;;;;;;;;;;;;;;;;;5005791;28;19916;-71
2024/01/17 05:40:41;;;;;;;;;;;;;;;;;;5016929;28;19921;-68
2024/01/17 05:43:06;;;;;;;;;;;;;;;;;;5023296;28;19925;-69
2024/01/17 05:45:39;;;;;;;;;;;;;;;;;;5013102;28;19909;-70
2024/01/17 05:48:04;;;;;;;;;;;;;;;;;;5037374;28;19921;-69
2024/01/17 05:50:30;;;;;;;;;;;;;;;;;;4999409;28;19912;-70
2024/01/17 05:52:56;;;;;;;;;;;;;;;;;;5020735;28;19938;-69
2024/01/17 05:55:24;;;;;;;;;;;;;;;;;;5002186;28;19917;-70
2024/01/17 05:57:50;;;;;;;;;;;;;;;;;;5020562;28;20003;-69
2024/01/17 06:00:16;;;;;;;;;;;;;;;;;;5022189;28;20209;-68
2024/01/17 06:02:44;;;;;;;;;;;;;;;;;;5020668;28;20287;-69
2024/01/17 06:05:12;;;;;;;;;;;;;;;;;;5013081;28;19964;-69
2024/01/17 06:07:38;;;;;;;;;;;;;;;;;;5020054;28;20003;-68
2024/01/17 06:10:06;;;;;;;;;;;;;;;;;;5019898;28;20969;-68
2024/01/17 06:12:32;;;;;;;;;;;;;;;;;;5020967;28;19920;-69
2024/01/17 06:17:51;;;;;;;;;;;;;;;;;;5033565;28;19924;-68
2024/01/17 06:20:16;;;;;;;;;;;;;;;;;;5021224;28;19970;-70
2024/01/17 06:22:42;;;;;;;;;;;;;;;;;;5036565;28;19931;-69
2024/01/17 06:25:10;;;;;;;;;;;;;;;;;;5037737;28;20022;-70
2024/01/17 06:27:35;;;;;;;;;;;;;;;;;;5018284;28;19921;-68
2024/01/17 06:30:03;;;;;;;;;;;;;;;;;;5004571;28;20374;-69
2024/01/17 06:32:29;;;;;;;;;;;;;;;;;;5021997;28;19925;-69
2024/01/17 06:34:59;;;;;;;;;;;;;;;;;;5024157;28;20556;-68
2024/01/17 06:37:25;;;;;;;;;;;;;;;;;;5014205;28;19921;-68
2024/01/17 06:39:53;;;;;;;;;;;;;;;;;;5024170;28;19921;-69
2024/01/17 06:42:21;;;;;;;;;;;;;;;;;;5039185;28;19928;-69
2024/01/17 06:44:48;;;;;;;;;;;;;;;;;;5022057;28;19970;-69
2024/01/17 06:47:16;;;;;;;;;;;;;;;;;;5015390;28;19927;-69
2024/01/17 06:49:42;;;;;;;;;;;;;;;;;;5021688;28;19944;-69
2024/01/17 06:52:10;;;;;;;;;;;;;;;;;;5020935;28;20001;-68
2024/01/17 06:54:47;;;;;;;;;;;;;;;;;;5038741;28;20024;-68
2024/01/17 06:57:12;;;;;;;;;;;;;;;;;;5023704;28;20312;-69
2024/01/17 06:59:41;;;;;;;;;;;;;;;;;;5004768;28;19925;-69
2024/01/17 07:02:08;;;;;;;;;;;;;;;;;;5028684;28;19921;-70
2024/01/17 07:04:36;;;;;;;;;;;;;;;;;;5038111;28;19921;-69
2024/01/17 07:07:03;;;;;;;;;;;;;;;;;;5023734;28;19917;-69
2024/01/17 07:09:31;;;;;;;;;;;;;;;;;;5024094;28;20248;-69
2024/01/17 07:12:00;;;;;;;;;;;;;;;;;;5025229;28;20003;-69
2024/01/17 07:14:28;;;;;;;;;;;;;;;;;;5024457;28;19928;-69
2024/01/17 07:16:55;;;;;;;;;;;;;;;;;;5022989;28;19924;-69
2024/01/17 07:19:23;;;;;;;;;;;;;;;;;;5025349;28;19952;-68
2024/01/17 07:21:48;;;;;;;;;;;;;;;;;;5027082;28;20008;-69
2024/01/17 07:24:15;;;;;;;;;;;;;;;;;;5027265;28;20115;-69
2024/01/17 07:26:46;;;;;;;;;;;;;;;;;;5004556;28;20011;-69
2024/01/17 07:29:11;;;;;;;;;;;;;;;;;;5024148;28;19924;-69
2024/01/17 07:31:38;;;;;;;;;;;;;;;;;;5022502;28;19920;-69
2024/01/17 07:34:07;;;;;;;;;;;;;;;;;;5038374;28;19932;-69
2024/01/17 07:36:33;;;;;;;;;;;;;;;;;;5023268;28;20544;-68
2024/01/17 07:39:01;;;;;;;;;;;;;;;;;;5021848;28;20295;-68
2024/01/17 07:41:26;;;;;;;;;;;;;;;;;;5024679;28;19913;-70
2024/01/17 07:43:52;;;;;;;;;;;;;;;;;;5024210;28;19916;-68
2024/01/17 07:46:17;;;;;;;;;;;;;;;;;;5020829;28;20328;-69
2024/01/17 07:48:43;;;;;;;;;;;;;;;;;;5022334;28;20427;-68
2024/01/17 07:51:12;;;;;;;;;;;;;;;;;;5004874;28;19927;-69
2024/01/17 07:53:38;;;;;;;;;;;;;;;;;;5023278;28;19929;-69
2024/01/17 07:56:06;;;;;;;;;;;;;;;;;;5040144;28;19921;-69
2024/01/17 07:58:32;;;;;;;;;;;;;;;;;;5025109;28;19917;-68
2024/01/17 08:00:59;;;;;;;;;;;;;;;;;;5023927;28;19932;-68
2024/01/17 08:03:24;;;;;;;;;;;;;;;;;;5040452;28;19920;-67
2024/01/17 08:05:54;;;;;;;;;;;;;;;;;;5023622;28;19917;-71
2024/01/17 08:08:19;;;;;;;;;;;;;;;;;;5005210;28;19924;-69
2024/01/17 08:10:50;;;;;;;;;;;;;;;;;;5023662;28;20339;-69
2024/01/17 08:13:18;;;;;;;;;;;;;;;;;;5024257;28;20055;-70
2024/01/17 08:15:43;;;;;;;;;;;;;;;;;;5039149;28;20368;-70
2024/01/17 08:18:09;;;;;;;;;;;;;;;;;;5007934;28;19928;-70
2024/01/17 08:20:36;;;;;;;;;;;;;;;;;;5014055;28;19956;-70
2024/01/17 08:23:02;;;;;;;;;;;;;;;;;;5022516;28;20011;-69
2024/01/17 08:25:29;;;;;;;;;;;;;;;;;;5005186;28;20047;-70
2024/01/17 08:27:55;;;;;;;;;;;;;;;;;;5005790;28;20335;-68
2024/01/17 08:30:20;;;;;;;;;;;;;;;;;;5040016;28;21735;-69
2024/01/17 08:32:45;;;;;;;;;;;;;;;;;;5022768;28;20225;-69
2024/01/17 08:35:10;;;;;;;;;;;;;;;;;;5020744;28;20458;-69
2024/01/17 08:37:36;;;;;;;;;;;;;;;;;;5003279;28;19920;-67
2024/01/17 08:40:07;;;;;;;;;;;;;;;;;;5041021;28;20296;-71
2024/01/17 08:42:32;;;;;;;;;;;;;;;;;;5036770;28;20514;-70
2024/01/17 08:44:58;;;;;;;;;;;;;;;;;;5023333;28;20393;-69
2024/01/17 08:47:23;;;;;;;;;;;;;;;;;;5018813;28;19928;-69
2024/01/17 08:49:49;;;;;;;;;;;;;;;;;;5024730;28;19917;-69
2024/01/17 08:52:14;;;;;;;;;;;;;;;;;;5023687;28;19933;-70
2024/01/17 08:54:40;;;;;;;;;;;;;;;;;;5020861;28;19917;-69
2024/01/17 08:57:05;;;;;;;;;;;;;;;;;;5026368;28;19913;-70
2024/01/17 08:59:33;;;;;;;;;;;;;;;;;;5021294;28;20007;-69
2024/01/17 09:01:58;;;;;;;;;;;;;;;;;;5007104;28;19963;-70
2024/01/17 09:04:26;;;;;;;;;;;;;;;;;;5022761;28;20705;-69
2024/01/17 09:06:55;;;;;;;;;;;;;;;;;;5021612;28;20063;-70
2024/01/17 09:09:22;;;;;;;;;;;;;;;;;;5038916;28;19917;-69
2024/01/17 09:11:47;;;;;;;;;;;;;;;;;;5055315;28;19924;-70
2024/01/17 09:14:19;;;;;;;;;;;;;;;;;;5004542;28;19964;-68
2024/01/17 09:16:45;;;;;;;;;;;;;;;;;;5056280;28;19956;-70
2024/01/17 09:19:10;;;;;;;;;;;;;;;;;;5025638;28;20012;-70
2024/01/17 09:21:39;;;;;;;;;;;;;;;;;;5020724;28;20325;-69
2024/01/17 09:24:07;;;;;;;;;;;;;;;;;;5006628;28;19925;-70
2024/01/17 09:26:32;;;;;;;;;;;;;;;;;;5021110;28;20007;-69
2024/01/17 09:28:58;;;;;;;;;;;;;;;;;;5023136;28;20054;-70
2024/01/17 09:31:28;;;;;;;;;;;;;;;;;;5004645;28;19917;-71
2024/01/17 09:33:53;;;;;;;;;;;;;;;;;;5005158;28;19928;-70
2024/01/17 09:36:20;;;;;;;;;;;;;;;;;;5025251;28;19921;-71
2024/01/17 09:38:47;;;;;;;;;;;;;;;;;;5029015;28;20164;-69
2024/01/17 09:41:15;;;;;;;;;;;;;;;;;;5054288;28;19963;-71
2024/01/17 09:43:50;;;;;;;;;;;;;;;;;;5020836;28;19925;-70
2024/01/17 09:46:16;;;;;;;;;;;;;;;;;;5012777;28;19917;-71
2024/01/17 09:48:41;;;;;;;;;;;;;;;;;;5003821;28;21857;-71
2024/01/17 09:51:10;;;;;;;;;;;;;;;;;;5018997;28;20002;-71
2024/01/17 09:53:36;;;;;;;;;;;;;;;;;;5022784;28;20015;-70
2024/01/17 09:56:01;;;;;;;;;;;;;;;;;;5020803;28;20128;-71
2024/01/17 09:58:26;;;;;;;;;;;;;;;;;;5055155;28;20504;-73
2024/01/17 10:00:54;;;;;;;;;;;;;;;;;;5003345;28;20027;-71
2024/01/17 10:03:22;;;;;;;;;;;;;;;;;;5022190;28;20015;-71
2024/01/17 10:05:47;;;;;;;;;;;;;;;;;;5052923;28;20498;-71
2024/01/17 10:08:14;;;;;;;;;;;;;;;;;;5036497;28;19998;-71
2024/01/17 10:10:40;;;;;;;;;;;;;;;;;;5024903;28;19924;-72
2024/01/17 10:13:06;;;;;;;;;;;;;;;;;;5037453;28;21349;-72
2024/01/17 10:15:32;;;;;;;;;;;;;;;;;;5039177;28;19920;-71
2024/01/17 10:17:57;;;;;;;;;;;;;;;;;;5023081;28;19987;-70
2024/01/17 10:20:22;;;;;;;;;;;;;;;;;;5013013;28;20588;-73
2024/01/17 10:22:48;;;;;;;;;;;;;;;;;;5038385;28;19917;-71
2024/01/17 10:25:17;;;;;;;;;;;;;;;;;;5019266;28;20037;-70
2024/01/17 10:27:42;;;;;;;;;;;;;;;;;;5022876;28;20360;-71
2024/01/17 10:30:07;;;;;;;;;;;;;;;;;;5019719;28;19921;-72
2024/01/17 10:32:36;;;;;;;;;;;;;;;;;;5019490;28;20427;-71
2024/01/17 10:35:05;;;;;;;;;;;;;;;;;;5015396;28;20035;-71
2024/01/17 10:37:31;;;;;;;;;;;;;;;;;;5005153;28;20696;-72
2024/01/17 10:39:59;;;;;;;;;;;;;;;;;;5020676;28;19957;-72
2024/01/17 10:42:25;;;;;;;;;;;;;;;;;;5020184;28;20325;-72
2024/01/17 10:44:50;;;;;;;;;;;;;;;;;;5022425;28;20315;-74
2024/01/17 10:47:16;;;;;;;;;;;;;;;;;;5022454;28;20467;-72
2024/01/17 10:49:44;;;;;;;;;;;;;;;;;;5053940;28;20431;-71
2024/01/17 10:52:11;;;;;;;;;;;;;;;;;;5038696;28;20283;-72
2024/01/17 10:55:22;;;;;;;;;;;;;;;;;;5004113;28;20012;-70
2024/01/17 10:57:32;;;;;;;;;;;;;;;;;;5015840;28;20166;-71
2024/01/17 11:00:03;;;;;;;;;;;;;;;;;;5022782;28;20174;-72
2024/01/17 11:02:31;;;;;;;;;;;;;;;;;;5036353;28;20004;-71
2024/01/17 11:04:57;;;;;;;;;;;;;;;;;;5036263;28;19921;-74
2024/01/17 11:07:22;;;;;;;;;;;;;;;;;;5035969;28;19928;-73
2024/01/17 11:09:47;;;;;;;;;;;;;;;;;;5003265;28;19921;-72
2024/01/17 11:12:13;;;;;;;;;;;;;;;;;;5020945;28;19921;-72
2024/01/17 11:14:38;;;;;;;;;;;;;;;;;;5023347;28;20340;-73
2024/01/17 11:17:06;;;;;;;;;;;;;;;;;;5021508;28;19924;-73
2024/01/17 11:19:32;;;;;;;;;;;;;;;;;;5026174;28;19916;-73
2024/01/17 11:21:57;;;;;;;;;;;;;;;;;;5041035;28;19924;-73
2024/01/17 11:24:22;;;;;;;;;;;;;;;;;;5027553;28;19916;-74
2024/01/17 11:26:50;;;;;;;;;;;;;;;;;;5020675;28;19920;-74
2024/01/17 11:29:15;;;;;;;;;;;;;;;;;;5023389;28;20702;-70
2024/01/17 11:31:40;;;;;;;;;;;;;;;;;;5024810;28;20498;-72
2024/01/17 11:34:06;;;;;;;;;;;;;;;;;;5008443;28;20172;-71
2024/01/17 11:36:31;;;;;;;;;;;;;;;;;;5040184;28;19925;-71
2024/01/17 11:39:01;;;;;;;;;;;;;;;;;;5041461;28;19974;-72
2024/01/17 11:41:33;;;;;;;;;;;;;;;;;;5007172;28;19927;-71
2024/01/17 11:43:58;;;;;;;;;;;;;;;;;;5025176;28;19921;-71
2024/01/17 11:46:23;;;;;;;;;;;;;;;;;;5022580;28;20446;-71
2024/01/17 11:48:50;;;;;;;;;;;;;;;;;;5024558;28;19916;-72
2024/01/17 11:51:15;;;;;;;;;;;;;;;;;;5007478;28;19975;-71
2024/01/17 11:53:40;;;;;;;;;;;;;;;;;;5023068;28;20019;-72
2024/01/17 11:56:06;;;;;;;;;;;;;;;;;;5022105;28;19925;-70
2024/01/17 11:58:34;;;;;;;;;;;;;;;;;;5023377;28;19975;-70
2024/01/17 12:01:15;;;;;;;;;;;;;;;;;;5005403;28;20376;-71
2024/01/17 12:03:42;;;;;;;;;;;;;;;;;;5022774;28;19947;-72
2024/01/17 12:06:08;;;;;;;;;;;;;;;;;;5022049;28;19921;-71
2024/01/17 12:08:33;;;;;;;;;;;;;;;;;;5022051;28;20406;-71
2024/01/17 12:10:58;;;;;;;;;;;;;;;;;;5003178;28;20273;-71
2024/01/17 12:13:24;;;;;;;;;;;;;;;;;;5022383;28;20356;-71
2024/01/17 12:15:49;;;;;;;;;;;;;;;;;;5007354;28;19975;-72
2024/01/17 12:18:14;;;;;;;;;;;;;;;;;;5004483;28;19929;-71
2024/01/17 12:20:40;;;;;;;;;;;;;;;;;;5024918;28;19932;-72
2024/01/17 12:23:05;;;;;;;;;;;;;;;;;;5035086;28;19927;-71
2024/01/17 12:25:31;;;;;;;;;;;;;;;;;;5004336;28;19983;-72
2024/01/17 12:27:57;;;;;;;;;;;;;;;;;;5027052;28;20517;-74
2024/01/17 12:30:22;;;;;;;;;;;;;;;;;;5037855;28;19917;-72
2024/01/17 12:32:47;;;;;;;;;;;;;;;;;;5023253;28;19921;-72
2024/01/17 12:35:13;;;;;;;;;;;;;;;;;;5022579;28;19940;-72
2024/01/17 12:37:41;;;;;;;;;;;;;;;;;;5021290;28;19925;-72
2024/01/17 12:40:09;;;;;;;;;;;;;;;;;;5022559;28;19928;-72
2024/01/17 12:42:34;;;;;;;;;;;;;;;;;;5056658;28;19921;-72
2024/01/17 12:44:59;;;;;;;;;;;;;;;;;;5005169;28;19927;-72
2024/01/17 12:47:27;;;;;;;;;;;;;;;;;;5024628;28;20562;-73
2024/01/17 12:49:53;;;;;;;;;;;;;;;;;;5003691;28;19921;-72
2024/01/17 12:52:51;;;;;;;;;;;;;;;;;;5035935;28;20359;-71
2024/01/17 12:55:21;;;;;;;;;;;;;;;;;;5021481;28;20413;-71
2024/01/17 12:57:47;;;;;;;;;;;;;;;;;;5021933;28;19921;-70
2024/01/17 13:00:13;;;;;;;;;;;;;;;;;;5021077;28;19923;-72
2024/01/17 13:02:39;;;;;;;;;;;;;;;;;;5037649;28;19924;-72
2024/01/17 13:05:04;;;;;;;;;;;;;;;;;;5021024;28;19967;-73
2024/01/17 13:07:30;;;;;;;;;;;;;;;;;;5053183;28;20321;-73
2024/01/17 13:09:55;;;;;;;;;;;;;;;;;;5024426;28;21571;-73
2024/01/17 13:12:20;;;;;;;;;;;;;;;;;;5018383;28;19925;-72
2024/01/17 13:14:47;;;;;;;;;;;;;;;;;;5023466;28;19959;-73
2024/01/17 13:17:12;;;;;;;;;;;;;;;;;;5022274;28;20383;-72
2024/01/17 13:19:38;;;;;;;;;;;;;;;;;;5022017;28;20311;-74
2024/01/17 13:22:03;;;;;;;;;;;;;;;;;;5022899;28;19924;-72
2024/01/17 13:24:28;;;;;;;;;;;;;;;;;;5001413;28;19921;-74
2024/01/17 13:26:54;;;;;;;;;;;;;;;;;;5023596;28;19920;-73
2024/01/17 13:29:21;;;;;;;;;;;;;;;;;;5037542;28;20307;-72
2024/01/17 13:31:46;;;;;;;;;;;;;;;;;;5019680;28;19927;-71
2024/01/17 13:34:11;;;;;;;;;;;;;;;;;;5021826;28;20414;-74
2024/01/17 13:36:39;;;;;;;;;;;;;;;;;;5027822;28;20426;-72
2024/01/17 13:39:08;;;;;;;;;;;;;;;;;;5021482;28;19924;-73
2024/01/17 13:41:33;;;;;;;;;;;;;;;;;;5053629;28;19916;-74
2024/01/17 13:43:59;;;;;;;;;;;;;;;;;;4999988;28;20505;-73
2024/01/17 13:46:24;;;;;;;;;;;;;;;;;;5021652;28;20395;-72
2024/01/17 13:48:49;;;;;;;;;;;;;;;;;;5020863;28;20320;-71
2024/01/17 13:51:16;;;;;;;;;;;;;;;;;;5019525;28;19917;-72
2024/01/17 13:53:42;;;;;;;;;;;;;;;;;;5022416;28;20102;-74
2024/01/17 13:56:07;;;;;;;;;;;;;;;;;;5021223;28;20492;-73
2024/01/17 13:58:33;;;;;;;;;;;;;;;;;;5023011;28;19916;-73
2024/01/17 14:00:59;;;;;;;;;;;;;;;;;;5020464;28;20008;-73
2024/01/17 14:03:28;;;;;;;;;;;;;;;;;;5035923;28;19921;-72
2024/01/17 14:05:53;;;;;;;;;;;;;;;;;;5022032;28;19921;-72
2024/01/17 14:08:18;;;;;;;;;;;;;;;;;;5018177;28;20551;-73
2024/01/17 14:10:44;;;;;;;;;;;;;;;;;;5023524;28;19917;-72
2024/01/17 14:13:09;;;;;;;;;;;;;;;;;;5019999;28;19986;-73
2024/01/17 14:15:35;;;;;;;;;;;;;;;;;;5020228;28;20695;-72
2024/01/17 14:18:00;;;;;;;;;;;;;;;;;;5021044;28;19921;-72
2024/01/17 14:20:28;;;;;;;;;;;;;;;;;;5022158;28;19940;-72
2024/01/17 14:22:55;;;;;;;;;;;;;;;;;;5053600;28;19923;-72
2024/01/17 14:25:20;;;;;;;;;;;;;;;;;;5020531;28;19921;-71
2024/01/17 14:27:46;;;;;;;;;;;;;;;;;;5003768;28;19916;-71
2024/01/17 14:30:11;;;;;;;;;;;;;;;;;;5023289;28;19963;-72
2024/01/17 14:32:37;;;;;;;;;;;;;;;;;;5021916;28;19925;-71
2024/01/17 14:35:02;;;;;;;;;;;;;;;;;;5053639;28;19948;-72
2024/01/17 14:37:27;;;;;;;;;;;;;;;;;;5035094;28;19921;-73
2024/01/17 14:39:53;;;;;;;;;;;;;;;;;;5019952;28;19917;-71
2024/01/17 14:42:23;;;;;;;;;;;;;;;;;;5022697;28;19971;-71
2024/01/17 14:44:48;;;;;;;;;;;;;;;;;;5018451;28;20145;-72
2024/01/17 14:47:13;;;;;;;;;;;;;;;;;;5023117;28;19921;-71
2024/01/17 14:49:39;;;;;;;;;;;;;;;;;;5033103;28;19917;-72
2024/01/17 14:52:04;;;;;;;;;;;;;;;;;;5011999;28;20352;-71
2024/01/17 14:54:30;;;;;;;;;;;;;;;;;;5022384;28;20382;-70
2024/01/17 14:56:56;;;;;;;;;;;;;;;;;;5024761;28;19929;-70
2024/01/17 14:59:22;;;;;;;;;;;;;;;;;;5022879;28;19916;-70
2024/01/17 15:01:50;;;;;;;;;;;;;;;;;;5009365;28;20498;-71
2024/01/17 15:04:16;;;;;;;;;;;;;;;;;;5024949;28;20348;-71
2024/01/17 15:06:42;;;;;;;;;;;;;;;;;;5022086;28;19995;-69
2024/01/17 15:09:12;;;;;;;;;;;;;;;;;;5023849;28;20533;-69
2024/01/17 15:11:56;;;;;;;;;;;;;;;;;;5025351;28;20056;-70
2024/01/17 15:14:31;;;;;;;;;;;;;;;;;;5025903;28;20382;-71
2024/01/17 15:16:59;;;;;;;;;;;;;;;;;;5025282;28;19923;-71
2024/01/17 15:19:24;;;;;;;;;;;;;;;;;;5053664;28;19923;-71
2024/01/17 15:21:50;;;;;;;;;;;;;;;;;;5055949;28;19921;-71
2024/01/17 15:24:16;;;;;;;;;;;;;;;;;;5021808;28;19917;-71
2024/01/17 15:26:42;;;;;;;;;;;;;;;;;;5023994;28;20418;-70
2024/01/17 15:29:07;;;;;;;;;;;;;;;;;;5038951;28;19932;-71
2024/01/17 15:31:34;;;;;;;;;;;;;;;;;;5023476;28;20237;-71
2024/01/17 15:33:59;;;;;;;;;;;;;;;;;;5023964;28;19928;-71
2024/01/17 15:36:25;;;;;;;;;;;;;;;;;;5037382;28;19939;-72
2024/01/17 15:38:52;;;;;;;;;;;;;;;;;;5025535;28;20126;-72
2024/01/17 15:41:18;;;;;;;;;;;;;;;;;;5023726;28;20771;-71
2024/01/17 15:43:43;;;;;;;;;;;;;;;;;;5005834;28;19917;-71
2024/01/17 15:46:11;;;;;;;;;;;;;;;;;;5006924;28;19929;-72
2024/01/17 15:48:39;;;;;;;;;;;;;;;;;;5024874;28;20292;-72
2024/01/17 15:51:05;;;;;;;;;;;;;;;;;;5030819;28;19928;-72
2024/01/17 15:53:33;;;;;;;;;;;;;;;;;;5013391;28;20819;-71
2024/01/17 15:55:58;;;;;;;;;;;;;;;;;;5022394;28;19956;-73
2024/01/17 15:58:24;;;;;;;;;;;;;;;;;;5020081;28;20016;-73
2024/01/17 16:00:50;;;;;;;;;;;;;;;;;;5023800;28;20031;-72
2024/01/17 16:03:15;;;;;;;;;;;;;;;;;;5026084;28;20265;-73
2024/01/17 16:05:40;;;;;;;;;;;;;;;;;;5017179;28;20031;-72
2024/01/17 16:08:06;;;;;;;;;;;;;;;;;;5022265;28;19960;-72
2024/01/17 16:10:31;;;;;;;;;;;;;;;;;;5003282;28;20257;-72
2024/01/17 16:12:56;;;;;;;;;;;;;;;;;;5024550;28;20376;-73
2024/01/17 16:15:22;;;;;;;;;;;;;;;;;;5004659;28;20829;-72
2024/01/17 16:17:47;;;;;;;;;;;;;;;;;;5021121;28;20365;-72
2024/01/17 16:20:16;;;;;;;;;;;;;;;;;;5021449;28;19917;-73
2024/01/17 16:26:21;;;;;;;;;;;;;;;;;;5021847;28;20268;-73
2024/01/17 16:29:03;;;;;;;;;;;;;;;;;;5019582;28;20268;-72
2024/01/17 16:31:44;;;;;;;;;;;;;;;;;;;;;
2024/01/17 16:34:51;;;;;;;;;;;;;;;;;;5021039;28;20014;-73
2024/01/17 16:37:17;;;;;;;;;;;;;;;;;;5017005;28;20315;-73
2024/01/17 16:39:50;;;;;;;;;;;;;;;;;;5020234;28;20426;-73
2024/01/17 16:42:19;;;;;;;;;;;;;;;;;;5019691;28;19921;-72
2024/01/17 16:48:06;;;;;;;;;;;;;;;;;;5018311;28;20013;-73
2024/01/17 16:50:34;;;;;;;;;;;;;;;;;;5018288;28;20357;-73
2024/01/17 16:53:03;;;;;;;;;;;;;;;;;;5002828;28;19933;-72
2024/01/17 16:55:32;;;;;;;;;;;;;;;;;;5034930;28;19917;-72
2024/01/17 16:58:02;;;;;;;;;;;;;;;;;;5033736;28;19921;-72
2024/01/17 17:00:37;;;;;;;;;;;;;;;;;;5021764;28;19953;-71
2024/01/17 17:03:13;;;;;;;;;;;;;;;;;;5023928;28;20513;-72